sensor_id;sensor_type;location;lat;lon;timestamp;temperature;humidity
39875;DHT22;25547;52.530;13.194;2023-04-06T00:02:25;4.70;93.60
39875;DHT22;25547;52.530;13.194;2023-04-06T00:04:50;4.70;93.70
39875;DHT22;25547;52.530;13.194;2023-04-06T00:07:23;4.70;93.70
39875;DHT22;25547;52.530;13.194;2023-04-06T00:09:48;4.70;94.00
39875;DHT22;25547;52.530;13.194;2023-04-06T00:12:16;4.70;93.70
39875;DHT22;25547;52.530;13.194;2023-04-06T00:14:46;4.60;93.80
39875;DHT22;25547;52.530;13.194;2023-04-06T00:17:12;4.50;93.70
39875;DHT22;25547;52.530;13.194;2023-04-06T00:19:38;4.50;93.90
39875;DHT22;25547;52.530;13.194;2023-04-06T00:22:06;4.60;93.80
39875;DHT22;25547;52.530;13.194;2023-04-06T00:24:32;4.50;93.70
39875;DHT22;25547;52.530;13.194;2023-04-06T00:26:57;4.50;93.60
39875;DHT22;25547;52.530;13.194;2023-04-06T00:29:25;4.50;93.50
39875;DHT22;25547;52.530;13.194;2023-04-06T00:31:51;4.40;93.60
39875;DHT22;25547;52.530;13.194;2023-04-06T00:34:16;4.40;93.70
39875;DHT22;25547;52.530;13.194;2023-04-06T00:36:42;4.40;93.70
39875;DHT22;25547;52.530;13.194;2023-04-06T00:39:08;4.40;93.70
39875;DHT22;25547;52.530;13.194;2023-04-06T00:41:33;4.30;93.70
39875;DHT22;25547;52.530;13.194;2023-04-06T00:43:59;4.30;93.80
39875;DHT22;25547;52.530;13.194;2023-04-06T00:46:28;4.20;94.00
39875;DHT22;25547;52.530;13.194;2023-04-06T00:48:56;4.30;94.10
39875;DHT22;25547;52.530;13.194;2023-04-06T00:51:22;4.30;93.90
39875;DHT22;25547;52.530;13.194;2023-04-06T00:53:48;4.30;94.10
39875;DHT22;25547;52.530;13.194;2023-04-06T00:56:13;4.10;94.20
39875;DHT22;25547;52.530;13.194;2023-04-06T00:58:39;4.10;94.50
39875;DHT22;25547;52.530;13.194;2023-04-06T01:01:06;4.10;94.50
39875;DHT22;25547;52.530;13.194;2023-04-06T01:03:31;4.10;94.50
39875;DHT22;25547;52.530;13.194;2023-04-06T01:05:57;4.00;94.80
39875;DHT22;25547;52.530;13.194;2023-04-06T01:08:26;4.00;94.90
39875;DHT22;25547;52.530;13.194;2023-04-06T01:10:52;4.00;95.10
39875;DHT22;25547;52.530;13.194;2023-04-06T01:13:20;3.90;95.30
39875;DHT22;25547;52.530;13.194;2023-04-06T01:15:48;4.00;95.40
39875;DHT22;25547;52.530;13.194;2023-04-06T01:18:17;4.00;95.40
39875;DHT22;25547;52.530;13.194;2023-04-06T01:20:43;4.00;95.20
39875;DHT22;25547;52.530;13.194;2023-04-06T01:23:08;4.00;95.30
39875;DHT22;25547;52.530;13.194;2023-04-06T01:25:36;3.90;95.40
39875;DHT22;25547;52.530;13.194;2023-04-06T01:28:06;4.00;95.60
39875;DHT22;25547;52.530;13.194;2023-04-06T01:30:32;3.80;95.40
39875;DHT22;25547;52.530;13.194;2023-04-06T01:32:58;3.60;96.00
39875;DHT22;25547;52.530;13.194;2023-04-06T01:35:23;3.50;96.50
39875;DHT22;25547;52.530;13.194;2023-04-06T01:37:51;3.40;96.80
39875;DHT22;25547;52.530;13.194;2023-04-06T01:40:19;3.40;97.00
39875;DHT22;25547;52.530;13.194;2023-04-06T01:42:46;3.30;97.30
39875;DHT22;25547;52.530;13.194;2023-04-06T01:45:11;3.40;97.50
39875;DHT22;25547;52.530;13.194;2023-04-06T01:47:40;3.50;97.40
39875;DHT22;25547;52.530;13.194;2023-04-06T01:50:06;3.60;97.30
39875;DHT22;25547;52.530;13.194;2023-04-06T01:52:35;3.60;97.30
39875;DHT22;25547;52.530;13.194;2023-04-06T01:55:01;3.60;97.40
39875;DHT22;25547;52.530;13.194;2023-04-06T01:57:31;3.60;97.60
39875;DHT22;25547;52.530;13.194;2023-04-06T02:00:00;3.50;97.80
39875;DHT22;25547;52.530;13.194;2023-04-06T02:02:28;3.50;97.80
39875;DHT22;25547;52.530;13.194;2023-04-06T02:04:54;3.50;98.10
39875;DHT22;25547;52.530;13.194;2023-04-06T02:07:19;3.50;98.40
39875;DHT22;25547;52.530;13.194;2023-04-06T02:09:47;3.50;98.60
39875;DHT22;25547;52.530;13.194;2023-04-06T02:12:15;3.50;98.50
39875;DHT22;25547;52.530;13.194;2023-04-06T02:14:40;3.40;98.40
39875;DHT22;25547;52.530;13.194;2023-04-06T02:17:09;3.20;98.90
39875;DHT22;25547;52.530;13.194;2023-04-06T02:19:37;3.00;99.50
39875;DHT22;25547;52.530;13.194;2023-04-06T02:22:02;2.90;99.90
39875;DHT22;25547;52.530;13.194;2023-04-06T02:24:30;2.70;99.90
39875;DHT22;25547;52.530;13.194;2023-04-06T02:26:56;2.70;99.90
39875;DHT22;25547;52.530;13.194;2023-04-06T02:29:21;2.70;99.90
39875;DHT22;25547;52.530;13.194;2023-04-06T02:31:47;2.70;99.90
39875;DHT22;25547;52.530;13.194;2023-04-06T02:34:13;2.80;99.90
39875;DHT22;25547;52.530;13.194;2023-04-06T02:36:44;2.90;99.90
39875;DHT22;25547;52.530;13.194;2023-04-06T02:39:13;2.90;99.90
39875;DHT22;25547;52.530;13.194;2023-04-06T02:41:39;2.70;99.90
39875;DHT22;25547;52.530;13.194;2023-04-06T02:44:07;2.60;99.90
39875;DHT22;25547;52.530;13.194;2023-04-06T02:46:34;2.50;99.90
39875;DHT22;25547;52.530;13.194;2023-04-06T02:48:59;2.40;99.90
39875;DHT22;25547;52.530;13.194;2023-04-06T02:51:28;2.50;99.90
39875;DHT22;25547;52.530;13.194;2023-04-06T02:53:56;2.30;99.90
39875;DHT22;25547;52.530;13.194;2023-04-06T02:56:22;2.30;99.90
39875;DHT22;25547;52.530;13.194;2023-04-06T02:58:50;2.30;99.90
39875;DHT22;25547;52.530;13.194;2023-04-06T03:01:18;2.40;99.90
39875;DHT22;25547;52.530;13.194;2023-04-06T03:03:43;2.40;99.90
39875;DHT22;25547;52.530;13.194;2023-04-06T03:06:09;2.50;99.90
39875;DHT22;25547;52.530;13.194;2023-04-06T03:08:35;2.50;99.90
39875;DHT22;25547;52.530;13.194;2023-04-06T03:11:01;2.60;99.90
39875;DHT22;25547;52.530;13.194;2023-04-06T03:13:27;2.60;99.90
39875;DHT22;25547;52.530;13.194;2023-04-06T03:15:55;2.70;99.90
39875;DHT22;25547;52.530;13.194;2023-04-06T03:18:27;2.70;99.90
39875;DHT22;25547;52.530;13.194;2023-04-06T03:20:55;2.60;99.90
39875;DHT22;25547;52.530;13.194;2023-04-06T03:23:21;2.60;99.90
39875;DHT22;25547;52.530;13.194;2023-04-06T03:25:47;2.60;99.90
39875;DHT22;25547;52.530;13.194;2023-04-06T03:28:12;2.60;99.90
39875;DHT22;25547;52.530;13.194;2023-04-06T03:30:38;2.60;99.90
39875;DHT22;25547;52.530;13.194;2023-04-06T03:33:06;2.60;99.90
39875;DHT22;25547;52.530;13.194;2023-04-06T03:35:32;2.40;99.90
39875;DHT22;25547;52.530;13.194;2023-04-06T03:38:00;2.30;99.90
39875;DHT22;25547;52.530;13.194;2023-04-06T03:40:28;2.20;99.90
39875;DHT22;25547;52.530;13.194;2023-04-06T03:42:56;2.20;99.90
39875;DHT22;25547;52.530;13.194;2023-04-06T03:45:21;2.10;99.90
39875;DHT22;25547;52.530;13.194;2023-04-06T03:47:49;2.10;99.90
39875;DHT22;25547;52.530;13.194;2023-04-06T03:50:17;2.10;99.90
39875;DHT22;25547;52.530;13.194;2023-04-06T03:52:43;2.00;99.90
39875;DHT22;25547;52.530;13.194;2023-04-06T03:55:09;2.00;99.90
39875;DHT22;25547;52.530;13.194;2023-04-06T03:57:35;2.00;99.90
39875;DHT22;25547;52.530;13.194;2023-04-06T04:00:03;2.00;99.90
39875;DHT22;25547;52.530;13.194;2023-04-06T04:02:31;2.00;99.90
39875;DHT22;25547;52.530;13.194;2023-04-06T04:04:59;2.20;99.90
39875;DHT22;25547;52.530;13.194;2023-04-06T04:07:25;2.20;99.90
39875;DHT22;25547;52.530;13.194;2023-04-06T04:09:50;2.10;99.90
39875;DHT22;25547;52.530;13.194;2023-04-06T04:12:16;2.10;99.90
39875;DHT22;25547;52.530;13.194;2023-04-06T04:14:44;2.00;99.90
39875;DHT22;25547;52.530;13.194;2023-04-06T04:17:12;1.90;99.90
39875;DHT22;25547;52.530;13.194;2023-04-06T04:19:40;1.80;99.90
39875;DHT22;25547;52.530;13.194;2023-04-06T04:22:05;1.70;99.90
39875;DHT22;25547;52.530;13.194;2023-04-06T04:24:34;1.70;99.90
39875;DHT22;25547;52.530;13.194;2023-04-06T04:27:00;1.70;99.90
39875;DHT22;25547;52.530;13.194;2023-04-06T04:29:30;1.60;99.90
39875;DHT22;25547;52.530;13.194;2023-04-06T04:31:55;1.60;99.90
39875;DHT22;25547;52.530;13.194;2023-04-06T04:34:21;1.50;99.90
39875;DHT22;25547;52.530;13.194;2023-04-06T04:36:49;1.50;99.90
39875;DHT22;25547;52.530;13.194;2023-04-06T04:39:17;1.50;99.90
39875;DHT22;25547;52.530;13.194;2023-04-06T04:41:42;1.50;99.90
39875;DHT22;25547;52.530;13.194;2023-04-06T04:44:08;1.50;99.90
39875;DHT22;25547;52.530;13.194;2023-04-06T04:46:36;1.50;99.90
39875;DHT22;25547;52.530;13.194;2023-04-06T04:49:02;1.50;99.90
39875;DHT22;25547;52.530;13.194;2023-04-06T04:51:27;1.60;99.90
39875;DHT22;25547;52.530;13.194;2023-04-06T04:53:53;1.50;99.90
39875;DHT22;25547;52.530;13.194;2023-04-06T04:56:19;1.50;99.90
39875;DHT22;25547;52.530;13.194;2023-04-06T04:58:44;1.60;99.90
39875;DHT22;25547;52.530;13.194;2023-04-06T05:01:10;1.60;99.90
39875;DHT22;25547;52.530;13.194;2023-04-06T05:03:36;1.50;99.90
39875;DHT22;25547;52.530;13.194;2023-04-06T05:06:04;1.60;99.90
39875;DHT22;25547;52.530;13.194;2023-04-06T05:08:30;1.70;99.90
39875;DHT22;25547;52.530;13.194;2023-04-06T05:10:56;1.70;99.90
39875;DHT22;25547;52.530;13.194;2023-04-06T05:13:24;1.70;99.90
39875;DHT22;25547;52.530;13.194;2023-04-06T05:15:52;1.70;99.90
39875;DHT22;25547;52.530;13.194;2023-04-06T05:18:18;1.80;99.90
39875;DHT22;25547;52.530;13.194;2023-04-06T05:20:44;1.80;99.90
39875;DHT22;25547;52.530;13.194;2023-04-06T05:23:09;1.80;99.90
39875;DHT22;25547;52.530;13.194;2023-04-06T05:25:35;1.90;99.90
39875;DHT22;25547;52.530;13.194;2023-04-06T05:28:01;1.90;99.90
39875;DHT22;25547;52.530;13.194;2023-04-06T05:30:27;2.00;99.90
39875;DHT22;25547;52.530;13.194;2023-04-06T05:32:55;2.10;99.90
39875;DHT22;25547;52.530;13.194;2023-04-06T05:35:20;2.10;99.90
39875;DHT22;25547;52.530;13.194;2023-04-06T05:37:48;2.20;99.90
39875;DHT22;25547;52.530;13.194;2023-04-06T05:40:14;2.20;99.90
39875;DHT22;25547;52.530;13.194;2023-04-06T05:42:41;2.30;99.90
39875;DHT22;25547;52.530;13.194;2023-04-06T05:45:10;2.40;99.90
39875;DHT22;25547;52.530;13.194;2023-04-06T05:47:37;2.40;99.90
39875;DHT22;25547;52.530;13.194;2023-04-06T05:50:03;2.40;99.90
39875;DHT22;25547;52.530;13.194;2023-04-06T05:52:29;2.60;99.90
39875;DHT22;25547;52.530;13.194;2023-04-06T05:54:54;2.60;99.90
39875;DHT22;25547;52.530;13.194;2023-04-06T05:57:22;2.60;99.90
39875;DHT22;25547;52.530;13.194;2023-04-06T05:59:48;2.60;99.90
39875;DHT22;25547;52.530;13.194;2023-04-06T06:02:14;2.70;99.90
39875;DHT22;25547;52.530;13.194;2023-04-06T06:04:42;2.80;99.90
39875;DHT22;25547;52.530;13.194;2023-04-06T06:07:10;2.80;99.90
39875;DHT22;25547;52.530;13.194;2023-04-06T06:09:35;2.90;99.90
39875;DHT22;25547;52.530;13.194;2023-04-06T06:12:03;2.90;99.90
39875;DHT22;25547;52.530;13.194;2023-04-06T06:14:29;3.00;99.90
39875;DHT22;25547;52.530;13.194;2023-04-06T06:16:55;3.10;99.90
39875;DHT22;25547;52.530;13.194;2023-04-06T06:19:20;3.20;99.90
39875;DHT22;25547;52.530;13.194;2023-04-06T06:21:46;3.20;99.90
39875;DHT22;25547;52.530;13.194;2023-04-06T06:24:12;3.30;99.90
39875;DHT22;25547;52.530;13.194;2023-04-06T06:26:39;3.40;99.90
39875;DHT22;25547;52.530;13.194;2023-04-06T06:29:06;3.60;99.90
39875;DHT22;25547;52.530;13.194;2023-04-06T06:31:34;3.70;99.90
39875;DHT22;25547;52.530;13.194;2023-04-06T06:34:00;3.90;99.90
39875;DHT22;25547;52.530;13.194;2023-04-06T06:36:27;3.90;99.40
39875;DHT22;25547;52.530;13.194;2023-04-06T06:38:53;3.90;99.00
39875;DHT22;25547;52.530;13.194;2023-04-06T06:41:18;4.00;98.90
39875;DHT22;25547;52.530;13.194;2023-04-06T06:43:44;4.20;98.50
39875;DHT22;25547;52.530;13.194;2023-04-06T06:46:10;4.20;98.30
39875;DHT22;25547;52.530;13.194;2023-04-06T06:48:35;4.20;98.10
39875;DHT22;25547;52.530;13.194;2023-04-06T06:51:01;4.30;97.90
39875;DHT22;25547;52.530;13.194;2023-04-06T06:53:29;4.40;97.40
39875;DHT22;25547;52.530;13.194;2023-04-06T06:55:54;4.50;97.10
39875;DHT22;25547;52.530;13.194;2023-04-06T06:58:22;4.70;97.00
39875;DHT22;25547;52.530;13.194;2023-04-06T07:00:48;4.90;96.10
39875;DHT22;25547;52.530;13.194;2023-04-06T07:03:16;5.00;95.70
39875;DHT22;25547;52.530;13.194;2023-04-06T07:05:49;5.20;95.00
39875;DHT22;25547;52.530;13.194;2023-04-06T07:08:19;5.20;94.80
39875;DHT22;25547;52.530;13.194;2023-04-06T07:10:45;5.20;94.20
39875;DHT22;25547;52.530;13.194;2023-04-06T07:13:14;5.30;94.20
39875;DHT22;25547;52.530;13.194;2023-04-06T07:15:47;5.40;93.80
39875;DHT22;25547;52.530;13.194;2023-04-06T07:18:16;5.50;92.80
39875;DHT22;25547;52.530;13.194;2023-04-06T07:20:41;5.50;92.90
39875;DHT22;25547;52.530;13.194;2023-04-06T07:23:09;5.70;93.00
39875;DHT22;25547;52.530;13.194;2023-04-06T07:25:35;5.70;92.60
39875;DHT22;25547;52.530;13.194;2023-04-06T07:28:02;6.00;92.60
39875;DHT22;25547;52.530;13.194;2023-04-06T07:30:32;6.10;91.90
39875;DHT22;25547;52.530;13.194;2023-04-06T07:32:58;6.20;91.50
39875;DHT22;25547;52.530;13.194;2023-04-06T07:35:26;6.50;91.70
39875;DHT22;25547;52.530;13.194;2023-04-06T07:37:55;6.70;90.70
39875;DHT22;25547;52.530;13.194;2023-04-06T07:40:23;6.70;89.10
39875;DHT22;25547;52.530;13.194;2023-04-06T07:42:51;6.90;88.10
39875;DHT22;25547;52.530;13.194;2023-04-06T07:45:21;7.40;86.60
39875;DHT22;25547;52.530;13.194;2023-04-06T07:47:47;9.30;81.80
39875;DHT22;25547;52.530;13.194;2023-04-06T07:50:13;12.50;69.30
39875;DHT22;25547;52.530;13.194;2023-04-06T07:52:38;14.60;57.40
39875;DHT22;25547;52.530;13.194;2023-04-06T07:55:04;16.30;53.50
39875;DHT22;25547;52.530;13.194;2023-04-06T07:57:30;17.00;49.00
39875;DHT22;25547;52.530;13.194;2023-04-06T07:59:58;19.70;44.60
39875;DHT22;25547;52.530;13.194;2023-04-06T08:02:26;20.30;41.70
39875;DHT22;25547;52.530;13.194;2023-04-06T08:04:52;21.20;40.10
39875;DHT22;25547;52.530;13.194;2023-04-06T08:07:22;22.50;36.50
39875;DHT22;25547;52.530;13.194;2023-04-06T08:09:51;23.00;35.30
39875;DHT22;25547;52.530;13.194;2023-04-06T08:12:21;23.70;34.00
39875;DHT22;25547;52.530;13.194;2023-04-06T08:14:48;24.10;33.50
39875;DHT22;25547;52.530;13.194;2023-04-06T08:17:13;23.70;32.40
39875;DHT22;25547;52.530;13.194;2023-04-06T08:19:42;22.30;32.40
39875;DHT22;25547;52.530;13.194;2023-04-06T08:22:13;23.10;32.20
39875;DHT22;25547;52.530;13.194;2023-04-06T08:24:39;22.40;32.10
39875;DHT22;25547;52.530;13.194;2023-04-06T08:27:05;22.10;30.90
39875;DHT22;25547;52.530;13.194;2023-04-06T08:29:33;21.70;31.70
39875;DHT22;25547;52.530;13.194;2023-04-06T08:31:58;21.70;31.40
39875;DHT22;25547;52.530;13.194;2023-04-06T08:34:24;21.00;32.00
39875;DHT22;25547;52.530;13.194;2023-04-06T08:36:52;21.60;32.00
39875;DHT22;25547;52.530;13.194;2023-04-06T08:39:18;21.90;32.90
39875;DHT22;25547;52.530;13.194;2023-04-06T08:41:51;20.80;31.90
39875;DHT22;25547;52.530;13.194;2023-04-06T08:44:18;18.80;32.90
39875;DHT22;25547;52.530;13.194;2023-04-06T08:46:46;16.60;37.60
39875;DHT22;25547;52.530;13.194;2023-04-06T08:49:12;16.90;38.80
39875;DHT22;25547;52.530;13.194;2023-04-06T08:51:42;16.10;38.00
39875;DHT22;25547;52.530;13.194;2023-04-06T08:54:08;15.50;39.20
39875;DHT22;25547;52.530;13.194;2023-04-06T08:56:38;18.20;37.50
39875;DHT22;25547;52.530;13.194;2023-04-06T08:59:07;19.90;35.40
39875;DHT22;25547;52.530;13.194;2023-04-06T09:01:38;20.40;33.80
39875;DHT22;25547;52.530;13.194;2023-04-06T09:04:07;19.70;33.80
39875;DHT22;25547;52.530;13.194;2023-04-06T09:06:36;18.60;35.00
39875;DHT22;25547;52.530;13.194;2023-04-06T09:09:06;15.50;37.90
39875;DHT22;25547;52.530;13.194;2023-04-06T09:11:47;13.90;42.80
39875;DHT22;25547;52.530;13.194;2023-04-06T09:14:14;12.90;44.60
39875;DHT22;25547;52.530;13.194;2023-04-06T09:16:47;11.90;46.80
39875;DHT22;25547;52.530;13.194;2023-04-06T09:19:15;11.90;47.40
39875;DHT22;25547;52.530;13.194;2023-04-06T09:21:41;11.30;48.50
39875;DHT22;25547;52.530;13.194;2023-04-06T09:24:08;11.20;49.10
39875;DHT22;25547;52.530;13.194;2023-04-06T09:26:45;10.80;50.00
39875;DHT22;25547;52.530;13.194;2023-04-06T09:29:26;10.50;50.80
39875;DHT22;25547;52.530;13.194;2023-04-06T09:31:52;10.50;51.00
39875;DHT22;25547;52.530;13.194;2023-04-06T09:34:26;10.20;52.20
39875;DHT22;25547;52.530;13.194;2023-04-06T09:36:52;10.30;52.40
39875;DHT22;25547;52.530;13.194;2023-04-06T09:39:21;10.40;52.30
39875;DHT22;25547;52.530;13.194;2023-04-06T09:41:50;10.50;51.40
39875;DHT22;25547;52.530;13.194;2023-04-06T09:44:16;10.20;51.00
39875;DHT22;25547;52.530;13.194;2023-04-06T09:46:45;10.00;51.10
39875;DHT22;25547;52.530;13.194;2023-04-06T09:49:12;9.80;51.20
39875;DHT22;25547;52.530;13.194;2023-04-06T09:51:46;9.70;51.40
39875;DHT22;25547;52.530;13.194;2023-04-06T09:54:18;10.00;52.10
39875;DHT22;25547;52.530;13.194;2023-04-06T10:05:00;10.70;51.60
39875;DHT22;25547;52.530;13.194;2023-04-06T10:07:33;10.60;49.10
39875;DHT22;25547;52.530;13.194;2023-04-06T10:10:02;10.20;48.50
39875;DHT22;25547;52.530;13.194;2023-04-06T10:12:28;9.90;49.00
39875;DHT22;25547;52.530;13.194;2023-04-06T10:14:54;10.00;49.40
39875;DHT22;25547;52.530;13.194;2023-04-06T10:17:21;10.20;49.50
39875;DHT22;25547;52.530;13.194;2023-04-06T10:23:02;10.30;50.20
39875;DHT22;25547;52.530;13.194;2023-04-06T10:25:29;10.50;50.50
39875;DHT22;25547;52.530;13.194;2023-04-06T10:28:11;10.00;50.10
39875;DHT22;25547;52.530;13.194;2023-04-06T10:30:42;9.80;48.70
39875;DHT22;25547;52.530;13.194;2023-04-06T10:35:40;10.30;48.80
39875;DHT22;25547;52.530;13.194;2023-04-06T10:38:06;10.30;47.90
39875;DHT22;25547;52.530;13.194;2023-04-06T10:40:36;10.50;47.70
39875;DHT22;25547;52.530;13.194;2023-04-06T10:45:37;10.30;46.90
39875;DHT22;25547;52.530;13.194;2023-04-06T10:48:13;10.60;47.30
39875;DHT22;25547;52.530;13.194;2023-04-06T10:50:44;10.40;46.90
39875;DHT22;25547;52.530;13.194;2023-04-06T10:53:11;10.20;49.40
39875;DHT22;25547;52.530;13.194;2023-04-06T10:55:39;10.50;48.80
39875;DHT22;25547;52.530;13.194;2023-04-06T10:58:07;10.80;46.00
39875;DHT22;25547;52.530;13.194;2023-04-06T11:00:33;11.00;43.70
39875;DHT22;25547;52.530;13.194;2023-04-06T11:02:59;11.00;44.40
39875;DHT22;25547;52.530;13.194;2023-04-06T11:05:26;11.00;44.20
39875;DHT22;25547;52.530;13.194;2023-04-06T11:07:55;10.70;44.60
39875;DHT22;25547;52.530;13.194;2023-04-06T11:10:22;10.50;46.10
39875;DHT22;25547;52.530;13.194;2023-04-06T11:12:56;10.60;47.10
39875;DHT22;25547;52.530;13.194;2023-04-06T11:15:22;10.40;47.70
39875;DHT22;25547;52.530;13.194;2023-04-06T11:17:47;10.00;49.20
39875;DHT22;25547;52.530;13.194;2023-04-06T11:20:15;10.30;50.20
39875;DHT22;25547;52.530;13.194;2023-04-06T11:22:51;10.20;48.50
39875;DHT22;25547;52.530;13.194;2023-04-06T11:25:17;10.10;48.90
39875;DHT22;25547;52.530;13.194;2023-04-06T11:27:45;10.00;47.10
39875;DHT22;25547;52.530;13.194;2023-04-06T11:30:14;9.80;46.70
39875;DHT22;25547;52.530;13.194;2023-04-06T11:32:44;9.80;47.10
39875;DHT22;25547;52.530;13.194;2023-04-06T11:35:21;9.90;47.50
39875;DHT22;25547;52.530;13.194;2023-04-06T11:37:51;10.10;47.40
39875;DHT22;25547;52.530;13.194;2023-04-06T11:40:23;10.00;46.40
39875;DHT22;25547;52.530;13.194;2023-04-06T11:42:56;10.00;46.60
39875;DHT22;25547;52.530;13.194;2023-04-06T11:45:24;10.20;46.70
39875;DHT22;25547;52.530;13.194;2023-04-06T11:47:58;9.90;46.40
39875;DHT22;25547;52.530;13.194;2023-04-06T11:50:32;9.90;46.60
39875;DHT22;25547;52.530;13.194;2023-04-06T11:53:00;9.90;46.00
39875;DHT22;25547;52.530;13.194;2023-04-06T11:55:26;10.20;46.20
39875;DHT22;25547;52.530;13.194;2023-04-06T11:57:52;10.20;45.60
39875;DHT22;25547;52.530;13.194;2023-04-06T12:00:18;10.30;45.50
39875;DHT22;25547;52.530;13.194;2023-04-06T12:02:46;10.10;45.50
39875;DHT22;25547;52.530;13.194;2023-04-06T12:05:12;10.10;46.30
39875;DHT22;25547;52.530;13.194;2023-04-06T12:07:38;10.20;46.40
39875;DHT22;25547;52.530;13.194;2023-04-06T12:10:04;10.30;47.20
39875;DHT22;25547;52.530;13.194;2023-04-06T12:12:30;10.60;47.10
39875;DHT22;25547;52.530;13.194;2023-04-06T12:14:56;10.70;47.30
39875;DHT22;25547;52.530;13.194;2023-04-06T12:17:22;10.70;46.00
39875;DHT22;25547;52.530;13.194;2023-04-06T12:19:48;10.70;46.10
39875;DHT22;25547;52.530;13.194;2023-04-06T12:22:14;10.80;46.00
39875;DHT22;25547;52.530;13.194;2023-04-06T12:24:42;10.80;46.20
39875;DHT22;25547;52.530;13.194;2023-04-06T12:27:08;10.80;46.00
39875;DHT22;25547;52.530;13.194;2023-04-06T12:29:34;10.90;45.90
39875;DHT22;25547;52.530;13.194;2023-04-06T12:32:02;10.60;45.10
39875;DHT22;25547;52.530;13.194;2023-04-06T12:34:29;10.90;45.30
39875;DHT22;25547;52.530;13.194;2023-04-06T12:36:55;10.90;46.00
39875;DHT22;25547;52.530;13.194;2023-04-06T12:39:21;10.80;46.50
39875;DHT22;25547;52.530;13.194;2023-04-06T12:41:47;10.90;46.90
39875;DHT22;25547;52.530;13.194;2023-04-06T12:44:13;10.90;47.20
39875;DHT22;25547;52.530;13.194;2023-04-06T12:46:39;10.90;47.20
39875;DHT22;25547;52.530;13.194;2023-04-06T12:49:04;11.10;47.10
39875;DHT22;25547;52.530;13.194;2023-04-06T12:51:32;11.00;46.30
39875;DHT22;25547;52.530;13.194;2023-04-06T12:53:58;10.80;46.50
39875;DHT22;25547;52.530;13.194;2023-04-06T12:56:26;11.00;47.90
39875;DHT22;25547;52.530;13.194;2023-04-06T12:58:52;10.70;48.10
39875;DHT22;25547;52.530;13.194;2023-04-06T13:01:18;10.80;48.70
39875;DHT22;25547;52.530;13.194;2023-04-06T13:03:46;10.80;49.20
39875;DHT22;25547;52.530;13.194;2023-04-06T13:06:17;10.90;48.90
39875;DHT22;25547;52.530;13.194;2023-04-06T13:08:42;10.90;48.60
39875;DHT22;25547;52.530;13.194;2023-04-06T13:11:08;11.00;48.30
39875;DHT22;25547;52.530;13.194;2023-04-06T13:13:35;11.00;47.50
39875;DHT22;25547;52.530;13.194;2023-04-06T13:16:03;10.70;47.10
39875;DHT22;25547;52.530;13.194;2023-04-06T13:18:30;10.80;47.10
39875;DHT22;25547;52.530;13.194;2023-04-06T13:20:58;10.70;47.40
39875;DHT22;25547;52.530;13.194;2023-04-06T13:23:29;10.70;47.70
39875;DHT22;25547;52.530;13.194;2023-04-06T13:26:03;10.60;47.10
39875;DHT22;25547;52.530;13.194;2023-04-06T13:28:32;10.60;47.80
39875;DHT22;25547;52.530;13.194;2023-04-06T13:31:02;10.80;48.10
39875;DHT22;25547;52.530;13.194;2023-04-06T13:33:28;10.60;46.60
39875;DHT22;25547;52.530;13.194;2023-04-06T13:35:55;10.60;46.80
39875;DHT22;25547;52.530;13.194;2023-04-06T13:38:20;10.40;46.70
39875;DHT22;25547;52.530;13.194;2023-04-06T13:40:48;10.50;47.20
39875;DHT22;25547;52.530;13.194;2023-04-06T13:43:15;10.80;47.20
39875;DHT22;25547;52.530;13.194;2023-04-06T13:45:41;11.00;47.40
39875;DHT22;25547;52.530;13.194;2023-04-06T13:48:06;11.00;46.80
39875;DHT22;25547;52.530;13.194;2023-04-06T13:50:37;11.10;46.50
39875;DHT22;25547;52.530;13.194;2023-04-06T13:53:02;10.90;46.50
39875;DHT22;25547;52.530;13.194;2023-04-06T13:55:28;10.90;47.20
39875;DHT22;25547;52.530;13.194;2023-04-06T13:57:56;10.80;47.20
39875;DHT22;25547;52.530;13.194;2023-04-06T14:00:22;10.80;47.30
39875;DHT22;25547;52.530;13.194;2023-04-06T14:02:49;10.80;47.90
39875;DHT22;25547;52.530;13.194;2023-04-06T14:05:14;10.90;47.80
39875;DHT22;25547;52.530;13.194;2023-04-06T14:07:40;10.80;47.30
39875;DHT22;25547;52.530;13.194;2023-04-06T14:10:09;10.60;47.40
39875;DHT22;25547;52.530;13.194;2023-04-06T14:12:42;10.80;48.50
39875;DHT22;25547;52.530;13.194;2023-04-06T14:15:11;10.90;48.40
39875;DHT22;25547;52.530;13.194;2023-04-06T14:17:39;10.90;48.60
39875;DHT22;25547;52.530;13.194;2023-04-06T14:20:10;10.90;48.00
39875;DHT22;25547;52.530;13.194;2023-04-06T14:22:41;11.00;48.50
39875;DHT22;25547;52.530;13.194;2023-04-06T14:25:08;11.00;48.20
39875;DHT22;25547;52.530;13.194;2023-04-06T14:27:34;11.00;48.40
39875;DHT22;25547;52.530;13.194;2023-04-06T14:30:02;11.10;48.00
39875;DHT22;25547;52.530;13.194;2023-04-06T14:32:28;11.00;47.70
39875;DHT22;25547;52.530;13.194;2023-04-06T14:34:56;10.90;47.60
39875;DHT22;25547;52.530;13.194;2023-04-06T14:37:21;10.80;47.50
39875;DHT22;25547;52.530;13.194;2023-04-06T14:39:49;10.90;48.20
39875;DHT22;25547;52.530;13.194;2023-04-06T14:42:17;11.00;48.10
39875;DHT22;25547;52.530;13.194;2023-04-06T14:44:45;11.10;46.90
39875;DHT22;25547;52.530;13.194;2023-04-06T14:47:13;11.00;46.60
39875;DHT22;25547;52.530;13.194;2023-04-06T14:49:43;10.90;47.20
39875;DHT22;25547;52.530;13.194;2023-04-06T14:52:09;10.80;47.80
39875;DHT22;25547;52.530;13.194;2023-04-06T14:54:34;10.80;48.60
39875;DHT22;25547;52.530;13.194;2023-04-06T14:57:03;10.80;47.90
39875;DHT22;25547;52.530;13.194;2023-04-06T14:59:28;10.80;47.90
39875;DHT22;25547;52.530;13.194;2023-04-06T15:01:58;10.80;48.00
39875;DHT22;25547;52.530;13.194;2023-04-06T15:04:25;10.80;48.10
39875;DHT22;25547;52.530;13.194;2023-04-06T15:06:55;10.80;48.30
39875;DHT22;25547;52.530;13.194;2023-04-06T15:09:22;10.70;48.60
39875;DHT22;25547;52.530;13.194;2023-04-06T15:11:48;10.60;48.70
39875;DHT22;25547;52.530;13.194;2023-04-06T15:14:16;10.70;49.00
39875;DHT22;25547;52.530;13.194;2023-04-06T15:16:46;10.70;49.10
39875;DHT22;25547;52.530;13.194;2023-04-06T15:19:12;10.70;49.00
39875;DHT22;25547;52.530;13.194;2023-04-06T15:21:37;10.70;49.40
39875;DHT22;25547;52.530;13.194;2023-04-06T15:24:03;10.80;49.40
39875;DHT22;25547;52.530;13.194;2023-04-06T15:26:36;10.70;49.40
39875;DHT22;25547;52.530;13.194;2023-04-06T15:29:02;10.60;49.40
39875;DHT22;25547;52.530;13.194;2023-04-06T15:31:28;10.60;49.30
39875;DHT22;25547;52.530;13.194;2023-04-06T15:33:55;10.70;49.70
39875;DHT22;25547;52.530;13.194;2023-04-06T15:36:25;11.00;49.40
39875;DHT22;25547;52.530;13.194;2023-04-06T15:38:52;11.20;48.30
39875;DHT22;25547;52.530;13.194;2023-04-06T15:41:17;11.10;48.50
39875;DHT22;25547;52.530;13.194;2023-04-06T15:43:46;11.00;49.00